Time;durP1;ratioP1;P1;durP2;ratioP2;P2;SDS_P1;SDS_P2;PMS_P1;PMS_P2;Temp;Humidity;BMP_temperature;BMP_pressure;BME280_temperature;BME280_humidity;BME280_pressure;Samples;Min_cycle;Max_cycle;Signal;HPM_P1;HPM_P2
2021/03/02 00:01:12;;;;;;;21.40;13.13;;;;;;;-0.04;70.38;94867.25;5110376;28;20477;-51
2021/03/02 00:03:39;;;;;;;24.13;13.48;;;;;;;-0.29;71.36;94837.59;5110253;28;20118;-52
2021/03/02 00:06:06;;;;;;;29.10;14.65;;;;;;;-0.13;71.85;94883.53;5109489;28;20028;-46
2021/03/02 00:08:33;;;;;;;33.05;17.30;;;;;;;-0.22;71.39;94861.75;5110308;28;20035;-46
2021/03/02 00:10:59;;;;;;;42.38;24.30;;;;;;;-0.09;71.29;94876.00;5092694;28;20085;-46
2021/03/02 00:13:25;;;;;;;34.45;20.50;;;;;;;-0.37;70.71;94858.81;5090089;28;20447;-47
2021/03/02 00:15:50;;;;;;;33.22;18.55;;;;;;;-0.13;70.61;94867.97;5090017;28;20032;-44
2021/03/02 00:18:18;;;;;;;33.08;19.02;;;;;;;-0.08;71.43;94859.25;5089890;28;20532;-46
2021/03/02 00:20:47;;;;;;;31.43;19.10;;;;;;;-0.12;71.31;94871.44;5093143;28;20032;-50
2021/03/02 00:23:22;;;;;;;28.37;18.10;;;;;;;-0.11;71.55;94857.44;5104320;28;20031;-47
2021/03/02 00:25:56;;;;;;;37.15;22.98;;;;;;;-0.03;71.73;94866.06;5112128;28;20554;-47
2021/03/02 00:28:22;;;;;;;37.70;23.05;;;;;;;0.10;70.59;94860.53;5112009;28;20027;-46
2021/03/02 00:30:49;;;;;;;35.35;21.38;;;;;;;0.08;70.06;94860.22;5112012;28;20099;-46
2021/03/02 00:33:14;;;;;;;45.13;25.00;;;;;;;0.06;70.90;94862.63;5113266;28;20027;-52
2021/03/02 00:35:39;;;;;;;44.00;24.88;;;;;;;-0.14;71.21;94863.00;5112276;28;20030;-48
2021/03/02 00:38:05;;;;;;;40.08;24.83;;;;;;;-0.03;71.78;94849.78;5112406;27;20016;-46
2021/03/02 00:40:30;;;;;;;50.17;29.80;;;;;;;-0.07;72.37;94852.66;5093497;28;20533;-49
2021/03/02 00:42:57;;;;;;;33.05;18.92;;;;;;;-0.34;72.04;94868.78;5093134;28;20074;-49
2021/03/02 00:45:22;;;;;;;25.90;16.20;;;;;;;-0.23;70.96;94873.81;5093014;28;20051;-48
2021/03/02 00:47:54;;;;;;;32.58;19.27;;;;;;;-0.19;70.87;94858.91;5093045;28;20067;-50
2021/03/02 00:50:21;;;;;;;38.83;19.67;;;;;;;-0.31;70.92;94854.34;5093069;28;20523;-48
2021/03/02 00:52:47;;;;;;;40.88;20.80;;;;;;;-0.44;71.80;94866.47;5092872;28;20481;-47
2021/03/02 00:55:12;;;;;;;46.53;20.10;;;;;;;-0.39;71.95;94855.78;5099693;28;20034;-46
2021/03/02 00:57:38;;;;;;;39.92;20.08;;;;;;;-0.45;71.71;94848.66;5113444;28;20031;-47
2021/03/02 01:00:06;;;;;;;32.28;17.42;;;;;;;-0.23;71.09;94852.84;5113224;28;20023;-54
2021/03/02 01:02:32;;;;;;;35.85;18.52;;;;;;;-0.17;71.65;94856.50;5113367;27;20518;-51
2021/03/02 01:04:57;;;;;;;33.35;18.48;;;;;;;-0.21;71.53;94855.88;5113317;27;20110;-49
2021/03/02 01:07:22;;;;;;;35.70;18.70;;;;;;;-0.18;72.05;94849.56;5098322;27;20416;-49
2021/03/02 01:09:48;;;;;;;32.40;19.58;;;;;;;-0.21;71.70;94845.03;5104210;28;20020;-50
2021/03/02 01:12:13;;;;;;;36.67;19.25;;;;;;;-0.14;70.95;94850.19;5102916;28;20475;-50
2021/03/02 01:14:39;;;;;;;57.90;29.83;;;;;;;-0.22;71.69;94843.50;5104849;28;20046;-50
2021/03/02 01:17:05;;;;;;;62.50;31.52;;;;;;;-0.45;72.89;94843.22;5113161;28;20079;-47
2021/03/02 01:19:31;;;;;;;45.40;24.40;;;;;;;-0.34;72.98;94846.31;5113282;28;20035;-46
2021/03/02 01:21:56;;;;;;;55.15;28.50;;;;;;;-0.21;72.68;94850.47;5113265;28;20028;-46
2021/03/02 01:24:21;;;;;;;58.50;31.35;;;;;;;-0.14;71.75;94841.28;5112946;28;20389;-47
2021/03/02 01:26:47;;;;;;;41.40;25.38;;;;;;;-0.44;72.69;94847.47;5112990;28;20031;-48
2021/03/02 01:29:12;;;;;;;36.40;20.85;;;;;;;-0.35;72.00;94839.38;5095447;27;20110;-47
2021/03/02 01:31:38;;;;;;;25.45;16.63;;;;;;;-0.39;71.79;94841.47;5091162;28;20078;-49
2021/03/02 01:34:03;;;;;;;25.05;14.38;;;;;;;-0.24;71.07;94831.59;5092341;28;20024;-50
2021/03/02 01:36:29;;;;;;;27.45;15.73;;;;;;;-0.26;71.61;94834.00;5092570;28;20078;-47
2021/03/02 01:38:55;;;;;;;26.27;14.40;;;;;;;-0.18;71.17;94841.44;5100844;28;20464;-47
2021/03/02 01:41:20;;;;;;;20.63;12.60;;;;;;;-0.22;71.04;94838.06;5112659;28;20115;-47
2021/03/02 01:43:46;;;;;;;25.05;15.13;;;;;;;-0.43;70.88;94825.31;5112530;28;20020;-46
2021/03/02 01:46:12;;;;;;;27.45;17.48;;;;;;;-0.36;71.64;94841.34;5112426;28;20031;-48
2021/03/02 01:48:38;;;;;;;22.92;15.23;;;;;;;-0.30;71.62;94833.34;5108447;28;20028;-47
2021/03/02 01:51:04;;;;;;;25.38;14.70;;;;;;;-0.15;71.05;94829.66;5092290;28;20050;-48
2021/03/02 01:53:30;;;;;;;29.23;16.45;;;;;;;-0.18;70.91;94827.09;5090739;28;20046;-48
2021/03/02 01:55:57;;;;;;;28.15;16.88;;;;;;;-0.44;71.25;94834.66;5092045;28;20110;-47
2021/03/02 01:58:23;;;;;;;21.00;12.48;;;;;;;-0.68;71.95;94828.19;5090727;28;20109;-49
2021/03/02 02:00:51;;;;;;;17.52;11.13;;;;;;;-0.85;72.30;94827.63;5091798;28;20055;-47
2021/03/02 02:03:34;;;;;;;19.30;11.82;;;;;;;-0.71;72.22;94837.19;5091292;28;20024;-46
2021/03/02 02:06:25;;;;;;;15.35;10.88;;;;;;;-0.60;72.43;94834.09;5092604;28;20546;-48
2021/03/02 02:09:05;;;;;;;41.92;17.38;;;;;;;-0.67;72.12;94832.41;5091826;28;20024;-48
2021/03/02 02:11:38;;;;;;;18.88;10.40;;;;;;;-1.00;72.57;94815.03;5090410;28;20085;-49
2021/03/02 02:14:10;;;;;;;15.82;10.50;;;;;;;-0.82;72.66;94825.97;5090631;28;20580;-47
2021/03/02 02:16:37;;;;;;;22.20;11.07;;;;;;;-0.89;73.18;94829.69;5090382;28;20103;-52
2021/03/02 02:19:04;;;;;;;23.15;12.02;;;;;;;-0.82;72.82;94831.41;5090246;28;20144;-48
2021/03/02 02:21:40;;;;;;;23.27;14.52;;;;;;;-0.67;71.94;94828.97;5091576;28;20036;-46
2021/03/02 02:24:20;;;;;;;23.75;13.52;;;;;;;-0.68;70.90;94830.91;5090209;28;20103;-46
2021/03/02 02:26:54;;;;;;;23.55;12.50;;;;;;;-0.70;71.83;94833.31;5090462;28;20422;-46
2021/03/02 02:29:23;;;;;;;22.80;12.23;;;;;;;-0.62;71.57;94839.97;5091420;28;20029;-47
2021/03/02 02:31:50;;;;;;;21.67;11.68;;;;;;;-0.51;71.16;94832.22;5090286;28;20035;-46
2021/03/02 02:34:16;;;;;;;25.98;14.30;;;;;;;-0.45;70.63;94837.81;5091134;28;20023;-51
2021/03/02 02:36:46;;;;;;;26.90;12.73;;;;;;;-0.44;70.16;94831.94;5090202;28;20032;-46
2021/03/02 02:39:12;;;;;;;24.02;13.63;;;;;;;-0.55;70.15;94830.81;5100691;28;20031;-45
2021/03/02 02:41:39;;;;;;;24.92;13.68;;;;;;;-0.75;71.09;94836.56;5110282;28;20024;-46
2021/03/02 02:44:05;;;;;;;26.63;15.23;;;;;;;-0.80;71.55;94835.19;5110241;28;20031;-47
2021/03/02 02:46:31;;;;;;;26.55;15.27;;;;;;;-0.95;71.65;94836.88;5110283;28;20031;-47
2021/03/02 02:48:57;;;;;;;29.40;17.45;;;;;;;-1.29;72.50;94838.88;5102472;28;20036;-46
2021/03/02 02:51:24;;;;;;;32.47;17.48;;;;;;;-1.12;72.06;94816.59;5111489;28;20481;-47
2021/03/02 02:53:49;;;;;;;30.98;16.77;;;;;;;-1.28;72.33;94838.44;5110098;28;20488;-46
2021/03/02 02:56:16;;;;;;;32.55;17.75;;;;;;;-1.19;72.23;94841.22;5109975;28;20020;-47
2021/03/02 02:59:07;;;;;;;31.70;16.73;;;;;;;-1.29;72.25;94833.44;5110053;28;20027;-46
2021/03/02 03:01:41;;;;;;;33.33;18.15;;;;;;;-1.13;71.53;94844.13;5109988;28;20101;-48
2021/03/02 03:04:10;;;;;;;41.22;20.63;;;;;;;-1.25;71.16;94842.97;5109639;28;20548;-46
2021/03/02 03:06:40;;;;;;;47.20;24.25;;;;;;;-1.15;71.47;94843.81;5111104;28;20102;-46
2021/03/02 03:09:06;;;;;;;45.83;22.52;;;;;;;-1.41;71.46;94836.97;5109811;28;20563;-48
2021/03/02 03:11:36;;;;;;;27.75;14.40;;;;;;;-1.34;71.13;94850.28;5111113;28;20110;-48
2021/03/02 03:14:04;;;;;;;25.65;13.05;;;;;;;-1.35;70.85;94848.75;5111249;28;20024;-48
2021/03/02 03:16:30;;;;;;;27.05;14.35;;;;;;;-1.23;70.10;94854.13;5111084;28;20228;-48
2021/03/02 03:18:59;;;;;;;29.45;15.52;;;;;;;-1.36;70.64;94833.69;5109729;28;20066;-49
2021/03/02 03:21:24;;;;;;;30.27;16.50;;;;;;;-1.33;70.79;94857.19;5109748;28;20032;-48
2021/03/02 03:23:51;;;;;;;25.67;14.07;;;;;;;-1.44;70.51;94851.38;5110608;28;20047;-48
2021/03/02 03:26:18;;;;;;;26.38;14.43;;;;;;;-1.66;71.15;94854.03;5109739;28;20024;-46
2021/03/02 03:28:45;;;;;;;22.92;13.73;;;;;;;-1.78;71.25;94858.28;5109621;28;20548;-47
2021/03/02 03:31:11;;;;;;;26.92;14.10;;;;;;;-1.93;71.73;94854.50;5109731;28;20024;-46
2021/03/02 03:33:39;;;;;;;27.77;14.13;;;;;;;-1.86;72.69;94854.25;5109460;28;20412;-47
2021/03/02 03:36:05;;;;;;;53.70;26.27;;;;;;;-1.67;72.96;94864.09;5110915;28;20034;-49
2021/03/02 03:38:30;;;;;;;45.72;23.27;;;;;;;-1.73;72.26;94846.13;5110671;28;20415;-49
2021/03/02 03:40:55;;;;;;;42.53;23.15;;;;;;;-1.76;72.45;94853.19;5110838;28;20491;-47
2021/03/02 03:43:21;;;;;;;52.13;25.48;;;;;;;-1.73;72.72;94857.72;5110739;28;20023;-49
2021/03/02 03:45:46;;;;;;;51.85;26.23;;;;;;;-1.71;71.89;94858.03;5110634;28;20031;-47
2021/03/02 03:48:12;;;;;;;34.40;16.13;;;;;;;-2.15;71.21;94861.00;5110733;28;20019;-50
2021/03/02 03:50:37;;;;;;;33.45;16.63;;;;;;;-2.34;72.17;94862.72;5110526;28;20020;-49
2021/03/02 03:53:05;;;;;;;31.58;16.65;;;;;;;-2.10;71.78;94874.72;5109340;28;20050;-48
2021/03/02 03:55:36;;;;;;;30.38;15.27;;;;;;;-2.34;72.64;94868.88;5114642;28;20036;-50
2021/03/02 03:58:02;;;;;;;29.92;18.08;;;;;;;-2.24;72.39;94871.69;5113536;28;20032;-48
2021/03/02 04:00:28;;;;;;;33.22;14.95;;;;;;;-2.31;72.83;94868.00;5113244;28;20411;-48
2021/03/02 04:02:54;;;;;;;29.08;15.82;;;;;;;-2.35;73.15;94877.41;5113325;28;20023;-50
2021/03/02 04:05:20;;;;;;;20.40;12.45;;;;;;;-2.30;73.00;94855.25;5113260;28;20032;-49
2021/03/02 04:07:46;;;;;;;16.48;9.93;;;;;;;-2.17;72.67;94866.84;5113449;28;20023;-46
2021/03/02 04:10:12;;;;;;;23.30;14.40;;;;;;;-2.22;73.37;94874.72;5113221;28;20077;-47
2021/03/02 04:12:39;;;;;;;26.67;15.25;;;;;;;-2.16;71.67;94862.16;5106964;28;20028;-46
2021/03/02 04:15:10;;;;;;;20.25;12.82;;;;;;;-2.25;72.11;94870.94;5105147;28;20028;-46
2021/03/02 04:17:36;;;;;;;16.67;10.07;;;;;;;-2.32;72.17;94869.19;5114341;28;20115;-47
2021/03/02 04:20:03;;;;;;;21.88;10.57;;;;;;;-2.27;71.94;94867.91;5114263;28;20162;-45
2021/03/02 04:22:31;;;;;;;14.60;9.48;;;;;;;-2.12;71.17;94868.25;5114388;28;20051;-46
2021/03/02 04:24:56;;;;;;;17.63;10.55;;;;;;;-2.12;70.83;94865.53;5112976;28;20522;-47
2021/03/02 04:27:22;;;;;;;20.13;11.15;;;;;;;-2.30;72.31;94863.38;5114005;28;20063;-48
2021/03/02 04:29:47;;;;;;;25.33;13.88;;;;;;;-2.26;71.72;94866.72;5114114;28;20118;-47
2021/03/02 04:32:12;;;;;;;18.77;10.32;;;;;;;-2.35;71.28;94856.53;5095250;28;20058;-47
2021/03/02 04:34:38;;;;;;;21.88;13.73;;;;;;;-2.25;70.58;94862.81;5093561;28;20038;-47
2021/03/02 04:37:03;;;;;;;19.27;13.23;;;;;;;-2.44;71.26;94867.22;5093025;28;20750;-47
2021/03/02 04:39:29;;;;;;;22.00;12.98;;;;;;;-2.62;71.69;94864.28;5092549;28;20032;-47
2021/03/02 04:41:54;;;;;;;28.83;14.00;;;;;;;-2.47;70.98;94864.66;5093375;28;20032;-45
2021/03/02 04:44:19;;;;;;;23.35;14.27;;;;;;;-2.59;71.31;94866.13;5093426;28;20034;-46
2021/03/02 04:46:45;;;;;;;21.23;13.18;;;;;;;-2.40;70.30;94867.13;5093452;28;20077;-47
2021/03/02 04:49:10;;;;;;;24.50;14.95;;;;;;;-2.37;69.59;94877.84;5093266;28;20028;-49
2021/03/02 04:51:36;;;;;;;27.90;15.35;;;;;;;-2.45;70.66;94881.19;5093313;28;20054;-45
2021/03/02 04:54:01;;;;;;;28.98;16.13;;;;;;;-2.95;71.63;94881.06;5093233;28;20036;-46
2021/03/02 04:56:27;;;;;;;32.75;18.17;;;;;;;-2.91;72.91;94868.97;5110333;28;20024;-46
2021/03/02 04:58:52;;;;;;;46.03;21.17;;;;;;;-3.39;73.66;94821.25;5113434;27;20035;-45
2021/03/02 05:01:17;;;;;;;41.25;21.27;;;;;;;-3.13;74.79;94879.59;5113195;28;20051;-45
2021/03/02 05:03:43;;;;;;;32.47;20.58;;;;;;;-3.13;74.91;94882.28;5113249;27;20042;-44
2021/03/02 05:06:08;;;;;;;31.15;18.33;;;;;;;-2.95;74.54;94862.91;5111966;28;20020;-45
2021/03/02 05:08:34;;;;;;;27.63;15.75;;;;;;;-2.79;73.64;94879.03;5113298;28;20024;-44
2021/03/02 05:10:59;;;;;;;32.15;19.60;;;;;;;-2.85;74.66;94886.16;5113427;28;20077;-45
2021/03/02 05:13:25;;;;;;;44.25;18.92;;;;;;;-2.82;73.06;94884.56;5113085;28;20023;-45
2021/03/02 05:15:50;;;;;;;103.10;41.47;;;;;;;-2.78;71.92;94882.50;5113069;28;20031;-48
2021/03/02 05:18:16;;;;;;;51.10;26.00;;;;;;;-2.69;71.63;94888.81;5113001;28;20176;-45
2021/03/02 05:20:41;;;;;;;39.13;21.52;;;;;;;-2.67;71.81;94889.16;5113015;28;20027;-45
2021/03/02 05:23:07;;;;;;;50.05;26.90;;;;;;;-2.74;73.00;94897.44;5113013;28;20023;-45
2021/03/02 05:25:32;;;;;;;61.28;29.27;;;;;;;-2.66;72.33;94903.41;5111770;28;20055;-46
2021/03/02 05:27:57;;;;;;;61.60;30.42;;;;;;;-2.61;71.54;94894.78;5111315;28;20076;-46
2021/03/02 05:30:23;;;;;;;69.35;32.70;;;;;;;-2.59;70.72;94901.28;5110534;28;20120;-47
2021/03/02 05:32:49;;;;;;;79.40;36.15;;;;;;;-2.48;71.02;94900.97;5111627;28;20034;-46
2021/03/02 05:35:14;;;;;;;79.40;37.00;;;;;;;-2.44;70.37;94898.91;5111493;28;20027;-48
2021/03/02 05:37:40;;;;;;;71.15;33.88;;;;;;;-2.57;70.58;94906.25;5111429;28;20028;-47
2021/03/02 05:40:06;;;;;;;70.07;35.60;;;;;;;-2.54;71.16;94900.75;5111683;28;20019;-45
2021/03/02 05:42:34;;;;;;;66.35;33.30;;;;;;;-2.36;70.92;94911.06;5111869;28;20056;-46
2021/03/02 05:45:02;;;;;;;88.32;40.45;;;;;;;-2.39;70.71;94918.09;5111378;28;20114;-46
2021/03/02 05:47:27;;;;;;;82.35;40.38;;;;;;;-2.49;70.76;94918.41;5111470;28;20405;-46
2021/03/02 05:49:53;;;;;;;63.35;33.55;;;;;;;-2.78;71.42;94918.41;5110183;28;20136;-45
2021/03/02 05:52:18;;;;;;;59.15;30.75;;;;;;;-2.77;72.21;94917.22;5111138;28;20036;-46
2021/03/02 05:54:44;;;;;;;53.13;26.05;;;;;;;-2.35;71.28;94915.28;5102096;28;20111;-45
2021/03/02 05:57:10;;;;;;;44.00;23.23;;;;;;;-2.18;71.23;94921.34;5089786;28;20039;-46
2021/03/02 05:59:35;;;;;;;37.10;20.90;;;;;;;-2.26;70.97;94914.66;5089693;28;20121;-46
2021/03/02 06:02:01;;;;;;;45.63;23.02;;;;;;;-2.18;71.13;94924.06;5091013;28;20063;-45
2021/03/02 06:04:27;;;;;;;37.65;20.63;;;;;;;-2.00;70.72;94919.66;5090983;28;20496;-44
2021/03/02 06:07:00;;;;;;;31.05;17.33;;;;;;;-1.77;70.54;94919.34;5093735;28;20102;-47
2021/03/02 06:09:26;;;;;;;32.22;18.08;;;;;;;-1.66;70.48;94927.88;5111341;28;20027;-46
2021/03/02 06:12:04;;;;;;;36.47;19.10;;;;;;;-1.52;70.40;94917.81;5111029;28;20042;-45
2021/03/02 06:14:32;;;;;;;34.33;19.83;;;;;;;-1.38;71.12;94925.47;5111487;28;20042;-43
2021/03/02 06:16:57;;;;;;;33.08;19.92;;;;;;;-1.52;70.66;94925.94;5110524;28;20037;-45
2021/03/02 06:19:46;;;;;;;32.97;19.00;;;;;;;-1.30;71.26;94937.59;5110796;28;20027;-44
2021/03/02 06:22:33;;;;;;;32.25;18.95;;;;;;;-0.78;71.15;94929.66;5110914;28;20098;-44
2021/03/02 06:24:59;;;;;;;36.90;18.23;;;;;;;0.07;69.20;94930.06;5110720;28;20126;-44
2021/03/02 06:27:25;;;;;;;31.52;20.48;;;;;;;1.14;66.29;94927.38;5110771;28;20036;-46
2021/03/02 06:30:12;;;;;;;33.20;21.55;;;;;;;2.44;62.62;94926.28;5106869;28;20243;-47
2021/03/02 06:32:45;;;;;;;33.67;19.23;;;;;;;3.23;59.40;94925.56;5106613;28;20039;-47
2021/03/02 06:35:12;;;;;;;28.98;19.30;;;;;;;3.82;57.03;94921.75;5098542;28;20024;-50
2021/03/02 06:37:45;;;;;;;34.22;22.17;;;;;;;4.85;55.13;94918.94;5096986;28;20031;-46
2021/03/02 06:40:12;;;;;;;32.60;22.25;;;;;;;6.11;51.34;94918.97;5095061;28;20035;-46
2021/03/02 06:42:40;;;;;;;47.55;25.35;;;;;;;7.27;48.56;94927.34;5098214;27;20032;-47
2021/03/02 06:45:10;;;;;;;52.17;31.83;;;;;;;8.31;45.17;94924.25;5090928;28;20059;-48
2021/03/02 06:47:39;;;;;;;59.58;33.78;;;;;;;9.49;43.88;94917.34;5092383;28;20501;-48
2021/03/02 06:50:21;;;;;;;80.95;47.33;;;;;;;10.58;40.33;94928.38;5105738;28;20114;-48
2021/03/02 06:52:47;;;;;;;76.88;47.75;;;;;;;11.63;37.97;94913.56;5110554;28;20085;-50
2021/03/02 06:55:15;;;;;;;65.70;43.75;;;;;;;12.27;35.86;94920.09;5108687;28;20106;-47
2021/03/02 06:57:41;;;;;;;74.37;43.53;;;;;;;12.04;36.19;94911.31;5110464;28;20055;-49
2021/03/02 07:00:08;;;;;;;76.65;51.38;;;;;;;12.68;34.79;94909.41;5102433;28;20782;-46
2021/03/02 07:02:34;;;;;;;54.92;36.67;;;;;;;13.33;33.86;94911.63;5089864;28;20028;-44
2021/03/02 07:05:11;;;;;;;64.82;42.03;;;;;;;13.11;34.31;94908.47;5091400;28;20102;-42
2021/03/02 07:07:39;;;;;;;62.10;45.83;;;;;;;13.98;33.09;94896.25;5100510;28;20020;-52
2021/03/02 07:10:07;;;;;;;66.10;43.47;;;;;;;14.71;32.34;94891.34;5089652;28;20044;-48
2021/03/02 07:12:36;;;;;;;60.75;41.72;;;;;;;15.40;30.07;94873.94;5089277;28;20549;-56
2021/03/02 07:15:03;;;;;;;53.63;37.25;;;;;;;15.98;30.40;94894.94;5093539;28;20047;-51
2021/03/02 07:17:29;;;;;;;42.97;30.80;;;;;;;16.73;29.12;94888.91;5100274;28;20035;-52
2021/03/02 07:19:56;;;;;;;37.05;27.95;;;;;;;17.41;27.92;94886.91;5088353;28;20521;-54
2021/03/02 07:22:23;;;;;;;37.85;27.85;;;;;;;17.89;27.62;94894.13;5089486;28;20042;-56
2021/03/02 07:24:48;;;;;;;27.83;20.15;;;;;;;18.58;26.06;94894.66;5089109;28;20049;-49
2021/03/02 07:27:14;;;;;;;20.67;15.88;;;;;;;17.90;26.39;94898.41;5087635;28;20135;-48
2021/03/02 07:29:40;;;;;;;22.40;18.42;;;;;;;18.13;26.88;94895.53;5087260;28;20035;-49
2021/03/02 07:32:08;;;;;;;15.20;11.80;;;;;;;19.00;25.61;94887.13;5089254;28;20059;-48
2021/03/02 07:34:34;;;;;;;22.15;17.58;;;;;;;19.00;25.90;94877.97;5088286;28;20408;-49
2021/03/02 07:37:00;;;;;;;11.90;9.45;;;;;;;19.65;25.44;94887.75;5087802;28;20028;-49
2021/03/02 07:39:27;;;;;;;9.60;8.57;;;;;;;19.93;24.99;94875.34;5087777;28;20020;-47
2021/03/02 07:41:52;;;;;;;8.43;7.53;;;;;;;20.45;23.87;94879.63;5088793;28;20024;-52
2021/03/02 07:44:19;;;;;;;8.57;7.22;;;;;;;20.73;23.84;94879.06;5097139;28;20036;-50
2021/03/02 07:46:53;;;;;;;8.95;7.68;;;;;;;19.75;24.34;94880.19;5098633;28;20060;-55
2021/03/02 07:49:25;;;;;;;9.57;7.63;;;;;;;20.52;24.65;94878.06;5097534;28;20488;-55
2021/03/02 07:51:56;;;;;;;8.43;7.07;;;;;;;20.59;24.15;94883.56;5097107;28;20064;-54
2021/03/02 07:54:21;;;;;;;9.18;7.60;;;;;;;21.11;22.84;94872.97;5096626;28;20031;-55
2021/03/02 07:56:47;;;;;;;8.18;7.22;;;;;;;19.01;24.69;94871.84;5098892;28;20089;-55
2021/03/02 07:59:12;;;;;;;9.20;7.38;;;;;;;18.28;27.32;94878.72;5096460;28;20024;-53
2021/03/02 08:01:38;;;;;;;14.00;8.10;;;;;;;18.05;27.73;94872.47;5098422;28;20066;-52
2021/03/02 08:04:15;;;;;;;12.75;7.68;;;;;;;19.00;25.67;94878.72;5097886;28;20112;-52
2021/03/02 08:06:42;;;;;;;9.40;7.10;;;;;;;17.84;26.84;94880.38;5095926;28;20503;-51
2021/03/02 08:09:26;;;;;;;7.95;7.15;;;;;;;17.24;27.99;94876.31;5098660;28;20080;-53
2021/03/02 08:11:54;;;;;;;10.23;8.20;;;;;;;17.60;27.93;94872.59;5098856;28;20027;-51
2021/03/02 08:14:25;;;;;;;10.68;7.47;;;;;;;17.61;27.13;94872.00;5097296;28;20016;-61
2021/03/02 08:17:01;;;;;;;8.75;7.25;;;;;;;17.52;27.41;94867.00;5096940;28;20040;-61
2021/03/02 08:19:43;;;;;;;9.88;6.80;;;;;;;18.77;25.83;94869.75;5097318;28;20027;-62
2021/03/02 08:22:18;;;;;;;13.30;7.13;;;;;;;19.84;24.94;94865.53;5098806;28;20024;-61
2021/03/02 08:24:54;;;;;;;11.40;6.80;;;;;;;19.98;24.56;94855.47;5097468;28;20020;-62
2021/03/02 08:27:56;;;;;;;4.47;4.03;;;;;;;20.35;22.66;94851.53;5102977;28;20056;-62
2021/03/02 08:30:33;;;;;;;4.32;3.67;;;;;;;18.69;23.35;94860.66;5097413;28;20511;-63
2021/03/02 08:33:10;;;;;;;4.13;3.72;;;;;;;18.69;23.36;94850.19;5097394;28;20078;-62
2021/03/02 08:35:38;;;;;;;5.65;4.60;;;;;;;19.21;23.22;94853.94;5093247;28;20040;-61
2021/03/02 08:38:06;;;;;;;13.90;4.65;;;;;;;18.93;24.06;94857.13;5089167;28;20449;-60
2021/03/02 08:40:31;;;;;;;5.93;4.25;;;;;;;18.58;24.18;94855.50;5090873;28;20093;-59
2021/03/02 08:43:02;;;;;;;8.15;4.20;;;;;;;17.33;24.91;94850.63;5092282;28;20453;-59
2021/03/02 08:45:30;;;;;;;5.00;4.20;;;;;;;16.02;27.50;94853.53;5091898;28;20038;-50
2021/03/02 08:48:22;;;;;;;5.25;4.75;;;;;;;15.30;28.55;94850.69;5092188;28;20035;-50
2021/03/02 08:50:50;;;;;;;7.75;6.53;;;;;;;14.70;30.03;94853.00;5092307;28;20027;-48
2021/03/02 08:53:25;;;;;;;8.45;5.47;;;;;;;14.05;31.10;94845.63;5091253;28;20042;-53
2021/03/02 08:55:50;;;;;;;5.57;4.97;;;;;;;14.03;31.19;94850.97;5103829;28;20084;-50
2021/03/02 08:58:25;;;;;;;5.80;4.95;;;;;;;13.57;30.70;94858.72;5112396;28;20023;-46
2021/03/02 09:01:08;;;;;;;6.30;5.10;;;;;;;12.75;31.65;94855.41;5112129;28;20109;-47
2021/03/02 09:03:34;;;;;;;7.07;5.00;;;;;;;12.26;33.76;94849.34;5112446;28;20104;-49
2021/03/02 09:06:06;;;;;;;7.50;5.60;;;;;;;12.40;34.79;94858.47;5111933;28;20059;-46
2021/03/02 09:08:31;;;;;;;10.32;6.28;;;;;;;12.21;34.00;94843.91;5095005;28;20031;-48
2021/03/02 09:11:03;;;;;;;6.35;4.80;;;;;;;12.01;34.28;94843.19;5091549;28;20024;-47
2021/03/02 09:13:36;;;;;;;7.13;5.60;;;;;;;11.66;35.29;94820.47;5091569;28;20074;-51
2021/03/02 09:16:04;;;;;;;6.57;5.10;;;;;;;11.70;34.24;94845.84;5091398;28;20035;-47
2021/03/02 09:18:29;;;;;;;32.20;7.95;;;;;;;11.35;35.97;94844.72;5100553;28;20039;-51
2021/03/02 09:20:55;;;;;;;7.72;5.45;;;;;;;11.09;36.29;94852.81;5110430;28;20023;-48
2021/03/02 09:23:21;;;;;;;7.35;5.50;;;;;;;10.93;36.88;94836.41;5110301;28;20020;-50
2021/03/02 09:25:47;;;;;;;7.22;6.00;;;;;;;11.08;36.95;94829.22;5101021;28;20556;-52
2021/03/02 09:28:19;;;;;;;13.90;5.38;;;;;;;11.04;36.31;94825.25;5090982;28;20034;-50
2021/03/02 09:30:45;;;;;;;12.18;5.85;;;;;;;11.15;35.34;94844.47;5092286;28;20043;-49
2021/03/02 09:33:14;;;;;;;15.63;9.20;;;;;;;10.98;36.04;94841.13;5098668;28;20028;-44
2021/03/02 09:35:41;;;;;;;24.45;16.20;;;;;;;10.44;35.14;94789.41;5110797;28;20535;-46
2021/03/02 09:38:07;;;;;;;8.00;6.15;;;;;;;10.43;35.42;94831.34;5110487;28;20035;-45
2021/03/02 09:40:42;;;;;;;5.97;4.63;;;;;;;10.90;36.28;94834.66;5110281;28;20038;-47
2021/03/02 09:43:08;;;;;;;5.75;3.92;;;;;;;10.91;33.76;94831.41;5111375;28;20023;-45
2021/03/02 09:45:34;;;;;;;8.57;5.03;;;;;;;10.68;35.60;94839.16;5111591;28;20035;-47
2021/03/02 09:48:05;;;;;;;5.85;5.00;;;;;;;11.16;35.59;94832.88;5110192;28;20385;-46
2021/03/02 09:50:35;;;;;;;7.03;5.28;;;;;;;11.24;34.68;94825.50;5096005;28;20031;-56
2021/03/02 09:53:13;;;;;;;10.30;4.07;;;;;;;11.32;31.72;94831.97;5090618;28;20767;-55
2021/03/02 09:55:38;;;;;;;4.50;3.40;;;;;;;11.56;31.86;94841.50;5091391;28;20150;-57
2021/03/02 09:58:13;;;;;;;4.50;3.53;;;;;;;11.83;30.15;94838.38;5090629;28;20560;-58
2021/03/02 10:00:44;;;;;;;4.50;2.63;;;;;;;12.24;29.17;94840.06;5111055;28;20149;-60
2021/03/02 10:03:12;;;;;;;3.05;2.35;;;;;;;12.14;29.19;94834.19;5110948;28;20027;-49
2021/03/02 10:05:38;;;;;;;5.13;3.63;;;;;;;12.48;29.80;94832.41;5102773;28;20024;-49
2021/03/02 10:08:23;;;;;;;4.55;3.60;;;;;;;11.77;29.30;94831.44;5103673;28;20118;-58
2021/03/02 10:10:51;;;;;;;9.70;5.10;;;;;;;11.60;31.27;94820.56;5111239;28;20023;-59
2021/03/02 10:13:28;;;;;;;4.57;3.47;;;;;;;11.76;30.53;94825.16;5110787;28;20107;-61
2021/03/02 10:16:29;;;;;;;8.15;5.22;;;;;;;11.52;30.41;94829.97;5111134;28;20404;-61
2021/03/02 10:18:54;;;;;;;6.30;4.10;;;;;;;11.49;31.61;94829.00;5110803;28;20027;-56
2021/03/02 10:21:25;;;;;;;6.55;4.38;;;;;;;12.88;29.74;94824.94;5110841;28;20497;-50
2021/03/02 10:23:53;;;;;;;9.00;5.03;;;;;;;14.27;26.89;94820.13;5110720;28;20020;-55
2021/03/02 10:26:40;;;;;;;8.50;5.05;;;;;;;14.54;28.10;94824.28;5110771;28;20028;-59
2021/03/02 10:29:06;;;;;;;6.20;3.35;;;;;;;15.18;27.43;94816.13;5110802;28;20031;-60
2021/03/02 10:31:32;;;;;;;3.83;3.13;;;;;;;15.27;26.14;94814.88;5111180;28;20035;-56
2021/03/02 10:34:00;;;;;;;6.15;4.60;;;;;;;14.84;26.76;94804.34;5110613;28;20450;-58
2021/03/02 10:36:27;;;;;;;6.07;4.13;;;;;;;14.72;26.42;94794.81;5102418;28;20032;-59
2021/03/02 10:38:55;;;;;;;6.32;4.63;;;;;;;14.25;27.05;94814.38;5110179;28;20019;-58
2021/03/02 10:41:21;;;;;;;5.82;4.82;;;;;;;13.53;27.51;94807.59;5109796;28;20027;-57
2021/03/02 10:43:48;;;;;;;6.43;4.57;;;;;;;12.68;29.01;94811.69;5110418;28;20504;-57
2021/03/02 10:46:14;;;;;;;7.80;5.15;;;;;;;13.14;31.57;94805.59;5110453;28;20030;-58
2021/03/02 10:48:40;;;;;;;5.55;4.28;;;;;;;14.38;28.55;94783.75;5109280;28;20122;-57
2021/03/02 10:51:05;;;;;;;7.55;4.63;;;;;;;15.37;26.77;94788.78;5110057;28;20023;-57
2021/03/02 10:53:31;;;;;;;7.00;5.30;;;;;;;15.92;26.26;94794.81;5110462;28;20020;-58
2021/03/02 10:55:56;;;;;;;6.88;4.20;;;;;;;16.97;24.53;94785.16;5110071;28;20069;-57
2021/03/02 10:58:22;;;;;;;7.03;4.15;;;;;;;17.69;23.35;94791.00;5101877;28;20016;-56
2021/03/02 11:00:47;;;;;;;4.68;3.90;;;;;;;17.90;23.56;94780.31;5089859;28;20043;-56
2021/03/02 11:03:13;;;;;;;7.35;4.47;;;;;;;18.19;23.14;94781.50;5104649;28;20416;-58
2021/03/02 11:05:38;;;;;;;5.63;3.90;;;;;;;19.17;21.73;94761.19;5109976;28;20019;-58
2021/03/02 11:08:04;;;;;;;5.28;4.55;;;;;;;18.57;21.96;94767.28;5109556;28;20023;-59
2021/03/02 11:10:30;;;;;;;3.78;3.47;;;;;;;18.22;23.64;94763.56;5099592;28;20039;-55
2021/03/02 11:12:55;;;;;;;6.65;4.85;;;;;;;19.09;22.13;94757.72;5110199;28;20539;-59
2021/03/02 11:15:21;;;;;;;4.63;3.42;;;;;;;19.58;21.42;94751.28;5096144;28;20020;-59
2021/03/02 11:17:46;;;;;;;6.22;4.47;;;;;;;19.73;20.87;94745.50;5089401;28;20042;-59
2021/03/02 11:20:12;;;;;;;5.20;4.13;;;;;;;18.66;22.18;94756.22;5090062;28;20016;-54
2021/03/02 11:22:37;;;;;;;4.45;3.70;;;;;;;19.40;21.59;94741.41;5089472;28;20027;-50
2021/03/02 11:25:03;;;;;;;6.07;4.47;;;;;;;19.68;21.11;94732.50;5091645;28;20035;-48
2021/03/02 11:27:29;;;;;;;5.57;4.25;;;;;;;19.40;21.88;94733.75;5109921;28;20023;-49